Time;durP1;ratioP1;P1;durP2;ratioP2;P2;SDS_P1;SDS_P2;PMS_P1;PMS_P2;Temp;Humidity;BMP_temperature;BMP_pressure;BME280_temperature;BME280_humidity;BME280_pressure;Samples;Min_cycle;Max_cycle;Signal;HPM_P1;HPM_P2
2023/09/12 00:00:45;;;;;;;8.90;7.97;;;19.20;99.90;;;;;;5085876;28;20975;-75
2023/09/12 00:03:13;;;;;;;7.93;7.13;;;19.20;99.90;;;;;;5086118;28;20829;-75
2023/09/12 00:05:40;;;;;;;8.03;7.20;;;19.00;99.90;;;;;;5085699;28;21228;-75
2023/09/12 00:08:07;;;;;;;7.70;6.83;;;19.00;99.90;;;;;;5086236;28;20655;-75
2023/09/12 00:10:33;;;;;;;10.37;6.80;;;18.90;99.90;;;;;;5085922;28;20643;-75
2023/09/12 00:13:02;;;;;;;8.80;7.20;;;18.80;99.90;;;;;;5085385;28;20624;-75
2023/09/12 00:15:29;;;;;;;8.50;7.03;;;18.80;99.90;;;;;;5085982;28;20651;-75
2023/09/12 00:17:55;;;;;;;9.73;8.20;;;18.90;99.90;;;;;;5085914;28;20666;-75
2023/09/12 00:20:24;;;;;;;8.60;6.77;;;18.90;99.90;;;;;;5086000;28;20759;-75
2023/09/12 00:22:50;;;;;;;9.30;7.20;;;18.90;99.90;;;;;;5086288;28;20626;-75
2023/09/12 00:25:17;;;;;;;8.87;7.97;;;18.90;99.90;;;;;;5085850;28;21098;-75
2023/09/12 00:27:44;;;;;;;9.13;7.07;;;18.90;99.90;;;;;;5084624;28;20694;-75
2023/09/12 00:30:12;;;;;;;9.47;7.80;;;18.90;99.90;;;;;;5085513;28;20628;-75
2023/09/12 00:32:39;;;;;;;8.07;7.27;;;18.90;99.90;;;;;;5085137;28;20991;-75
2023/09/12 00:35:07;;;;;;;8.50;7.43;;;19.00;99.90;;;;;;5086272;28;21259;-75
2023/09/12 00:37:35;;;;;;;11.90;7.33;;;19.00;99.90;;;;;;5086232;28;21565;-75
2023/09/12 00:40:02;;;;;;;7.77;6.90;;;19.10;99.90;;;;;;5085029;28;21287;-75
2023/09/12 00:42:29;;;;;;;8.90;7.57;;;19.10;99.90;;;;;;5085812;28;20640;-75
2023/09/12 00:44:55;;;;;;;11.83;7.57;;;19.10;99.90;;;;;;5086657;28;20628;-75
2023/09/12 00:47:24;;;;;;;9.17;6.87;;;19.00;99.90;;;;;;5085570;28;20660;-75
2023/09/12 00:49:52;;;;;;;9.50;7.50;;;19.00;99.90;;;;;;5084486;28;21220;-75
2023/09/12 00:52:22;;;;;;;9.47;8.53;;;19.00;99.90;;;;;;5086010;28;21177;-75
2023/09/12 00:54:50;;;;;;;10.10;7.13;;;19.10;99.90;;;;;;5085623;28;20631;-75
2023/09/12 00:57:17;;;;;;;12.03;8.77;;;19.10;99.90;;;;;;5085908;28;21215;-75
2023/09/12 00:59:44;;;;;;;14.27;7.77;;;19.00;99.90;;;;;;5085385;28;20617;-75
2023/09/12 01:02:11;;;;;;;10.10;7.07;;;19.00;99.90;;;;;;5084827;28;21086;-75
2023/09/12 01:04:38;;;;;;;8.13;7.33;;;18.90;99.90;;;;;;5084686;28;21218;-75
2023/09/12 01:07:05;;;;;;;12.93;7.63;;;18.90;99.90;;;;;;5084810;28;20649;-75
2023/09/12 01:09:33;;;;;;;7.37;6.43;;;18.80;99.90;;;;;;5084860;28;21250;-75
2023/09/12 01:12:02;;;;;;;9.87;7.70;;;18.80;99.90;;;;;;5084800;28;20613;-75
2023/09/12 01:14:30;;;;;;;7.10;6.40;;;18.60;99.90;;;;;;5085743;28;20637;-75
2023/09/12 01:16:58;;;;;;;8.20;6.70;;;18.50;99.90;;;;;;5085353;28;20616;-75
2023/09/12 01:19:25;;;;;;;7.03;6.20;;;18.50;99.90;;;;;;5084868;28;20628;-75
2023/09/12 01:22:11;;;;;;;7.33;6.63;;;18.40;99.90;;;;;;5084543;28;20731;-75
2023/09/12 01:25:08;;;;;;;9.00;7.27;;;18.30;99.90;;;;;;5086522;28;20627;-75
2023/09/12 01:27:42;;;;;;;11.07;6.80;;;18.30;99.90;;;;;;5083680;28;20694;-75
2023/09/12 01:30:11;;;;;;;7.90;7.10;;;18.30;99.90;;;;;;5084477;28;21196;-75
2023/09/12 01:32:40;;;;;;;14.83;7.70;;;18.30;99.90;;;;;;5083458;28;20640;-75
2023/09/12 01:35:09;;;;;;;7.67;6.60;;;18.20;99.90;;;;;;5086143;28;21438;-75
2023/09/12 01:37:37;;;;;;;8.27;7.37;;;18.30;99.90;;;;;;5086085;28;20631;-75
2023/09/12 01:40:06;;;;;;;8.60;7.53;;;18.40;99.90;;;;;;5086312;28;21156;-75
2023/09/12 01:56:18;;;;;;;7.40;6.70;;;18.40;99.90;;;;;;5081854;28;21078;-75
2023/09/12 01:58:46;;;;;;;10.40;8.00;;;18.40;99.90;;;;;;5089357;28;20632;-75
2023/09/12 02:01:15;;;;;;;9.07;6.43;;;18.40;99.90;;;;;;5088936;28;21192;-75
2023/09/12 02:03:43;;;;;;;9.27;7.00;;;18.50;99.90;;;;;;5104207;27;20781;-75
2023/09/12 02:06:10;;;;;;;7.57;6.90;;;18.50;99.90;;;;;;5106129;27;20699;-75
2023/09/12 02:08:36;;;;;;;11.53;7.50;;;18.50;99.90;;;;;;5118050;27;20710;-75
2023/09/12 02:11:03;;;;;;;9.97;7.13;;;18.50;99.90;;;;;;5103724;27;20638;-75
2023/09/12 02:13:32;;;;;;;9.63;7.67;;;18.50;99.90;;;;;;5104283;27;20735;-75
2023/09/12 02:16:02;;;;;;;9.90;7.50;;;18.50;99.90;;;;;;5102257;27;20639;-75
2023/09/12 02:18:30;;;;;;;8.00;6.47;;;18.60;99.90;;;;;;5104245;27;20741;-75
2023/09/12 02:20:59;;;;;;;10.27;8.20;;;18.60;99.90;;;;;;5103898;27;21449;-75
2023/09/12 02:23:26;;;;;;;8.17;7.37;;;18.70;99.90;;;;;;5105344;27;21210;-76
2023/09/12 02:25:54;;;;;;;10.73;7.60;;;18.80;99.90;;;;;;5104485;27;20635;-75
2023/09/12 02:28:24;;;;;;;10.17;7.97;;;18.60;99.90;;;;;;5103014;27;20746;-75
2023/09/12 02:30:53;;;;;;;9.33;6.80;;;18.60;99.90;;;;;;5104467;27;20637;-75
2023/09/12 02:33:21;;;;;;;10.47;7.60;;;18.60;99.90;;;;;;5104628;27;21099;-75
2023/09/12 02:35:49;;;;;;;10.40;8.53;;;18.50;99.90;;;;;;5103165;27;20628;-75
2023/09/12 02:38:18;;;;;;;8.80;7.83;;;18.50;99.90;;;;;;5104581;27;20725;-75
2023/09/12 02:40:45;;;;;;;10.90;8.83;;;18.50;99.90;;;;;;5104487;27;20629;-75
2023/09/12 02:43:13;;;;;;;13.00;7.50;;;18.50;99.90;;;;;;5103334;27;20639;-75
2023/09/12 02:45:41;;;;;;;8.47;7.60;;;18.40;99.90;;;;;;5103548;27;21214;-75
2023/09/12 02:48:09;;;;;;;7.67;6.93;;;18.40;99.90;;;;;;5103278;27;20666;-75
2023/09/12 02:50:37;;;;;;;10.57;8.47;;;18.40;99.90;;;;;;5104466;27;20622;-75
2023/09/12 02:53:06;;;;;;;11.90;9.87;;;18.30;99.90;;;;;;5104303;27;20620;-75
2023/09/12 02:55:33;;;;;;;10.00;7.47;;;18.30;99.90;;;;;;5102206;27;20753;-75
2023/09/12 02:58:00;;;;;;;8.13;7.30;;;18.30;99.90;;;;;;5102753;27;20623;-75
2023/09/12 03:00:26;;;;;;;12.33;7.20;;;18.40;99.90;;;;;;5103526;27;21265;-75
2023/09/12 03:02:53;;;;;;;10.23;7.40;;;18.40;99.90;;;;;;5104056;27;20960;-75
2023/09/12 03:05:21;;;;;;;8.20;7.40;;;18.30;99.90;;;;;;5103411;27;20714;-75
2023/09/12 03:07:48;;;;;;;10.73;6.60;;;18.30;99.90;;;;;;5101148;27;20659;-75
2023/09/12 03:10:15;;;;;;;9.37;7.00;;;18.20;99.90;;;;;;5102065;27;20642;-75
2023/09/12 03:12:42;;;;;;;11.77;8.47;;;18.20;99.90;;;;;;5103143;27;20631;-75
2023/09/12 03:15:10;;;;;;;10.40;7.53;;;18.20;99.90;;;;;;5104795;27;21827;-75
2023/09/12 03:17:37;;;;;;;9.30;7.07;;;18.20;99.90;;;;;;5102770;27;20624;-75
2023/09/12 03:20:06;;;;;;;8.67;7.77;;;18.20;99.90;;;;;;5104287;27;20645;-75
2023/09/12 03:22:37;;;;;;;7.50;6.80;;;18.20;99.90;;;;;;5104154;27;21477;-75
2023/09/12 03:25:05;;;;;;;10.40;9.30;;;18.10;99.90;;;;;;5102813;27;20624;-75
2023/09/12 03:27:32;;;;;;;11.10;8.50;;;18.20;99.90;;;;;;5103560;27;20655;-75
2023/09/12 03:29:59;;;;;;;9.00;8.13;;;18.20;99.90;;;;;;5103397;27;20626;-75
2023/09/12 03:32:26;;;;;;;9.43;8.43;;;18.20;99.90;;;;;;5101936;27;20642;-75
2023/09/12 03:34:53;;;;;;;10.37;8.57;;;18.10;99.90;;;;;;5102893;27;21584;-75
2023/09/12 03:37:21;;;;;;;10.90;8.63;;;18.00;99.90;;;;;;5102267;27;20604;-75
2023/09/12 03:39:49;;;;;;;9.27;8.37;;;18.00;99.90;;;;;;5103762;27;20616;-75
2023/09/12 03:42:16;;;;;;;10.53;8.63;;;18.00;99.90;;;;;;5101431;27;20643;-75
2023/09/12 03:44:43;;;;;;;9.80;8.17;;;18.00;99.90;;;;;;5101800;27;20626;-75
2023/09/12 03:47:09;;;;;;;9.57;7.43;;;18.10;99.90;;;;;;5102110;27;20638;-75
2023/09/12 03:49:36;;;;;;;9.53;8.60;;;18.20;99.90;;;;;;5103795;27;20792;-75
2023/09/12 03:52:04;;;;;;;9.77;7.83;;;18.30;99.90;;;;;;5103299;27;21257;-75
2023/09/12 03:54:30;;;;;;;10.70;7.77;;;18.20;99.90;;;;;;5102480;27;20967;-75
2023/09/12 03:56:59;;;;;;;12.30;7.53;;;18.10;99.90;;;;;;5101664;27;20979;-75
2023/09/12 03:59:25;;;;;;;9.50;7.90;;;18.10;99.90;;;;;;5103397;27;20634;-75
2023/09/12 04:01:52;;;;;;;9.23;7.80;;;18.10;99.90;;;;;;5101423;27;20627;-75
2023/09/12 04:04:19;;;;;;;8.43;7.50;;;17.90;99.90;;;;;;5102685;27;20635;-75
2023/09/12 04:06:46;;;;;;;9.90;8.17;;;17.90;99.90;;;;;;5101693;27;20628;-75
2023/09/12 04:09:13;;;;;;;9.60;7.97;;;18.00;99.90;;;;;;5101766;27;21076;-75
2023/09/12 04:11:40;;;;;;;10.80;7.70;;;18.00;99.90;;;;;;5100794;27;20637;-75
2023/09/12 04:14:08;;;;;;;10.27;8.10;;;18.00;99.90;;;;;;5094977;27;20634;-75
2023/09/12 04:16:35;;;;;;;10.80;8.33;;;17.90;99.90;;;;;;5101072;27;20623;-75
2023/09/12 04:19:01;;;;;;;8.00;6.83;;;17.90;99.90;;;;;;5101368;27;20637;-75
2023/09/12 04:21:28;;;;;;;9.53;8.30;;;17.90;99.90;;;;;;5100991;27;21427;-75
2023/09/12 04:23:55;;;;;;;9.70;7.67;;;17.90;99.90;;;;;;5101201;27;20629;-75
2023/09/12 04:26:22;;;;;;;10.20;7.40;;;18.00;99.90;;;;;;5099024;27;20638;-75
2023/09/12 04:28:49;;;;;;;7.37;6.60;;;18.00;99.90;;;;;;5100873;27;21205;-75
2023/09/12 04:31:17;;;;;;;7.30;6.60;;;18.00;99.90;;;;;;5096477;27;20624;-73
2023/09/12 04:33:43;;;;;;;9.60;7.10;;;18.00;99.90;;;;;;5098053;27;20628;-73
2023/09/12 04:36:10;;;;;;;7.80;7.10;;;17.90;99.90;;;;;;5100926;27;20630;-74
2023/09/12 04:38:37;;;;;;;8.27;7.10;;;17.90;99.90;;;;;;5097794;27;20642;-74
2023/09/12 04:41:06;;;;;;;8.20;7.40;;;17.90;99.90;;;;;;5101804;27;20635;-73
2023/09/12 04:43:33;;;;;;;9.10;8.20;;;17.90;99.90;;;;;;5101777;27;20641;-75
2023/09/12 04:46:00;;;;;;;8.27;6.83;;;17.90;99.90;;;;;;5101663;27;20973;-75
2023/09/12 04:48:28;;;;;;;7.33;6.63;;;17.90;99.90;;;;;;5098675;28;20655;-75
2023/09/12 04:50:56;;;;;;;11.20;7.73;;;17.90;99.90;;;;;;5097899;27;20626;-76
2023/09/12 04:53:23;;;;;;;11.00;7.97;;;18.00;99.90;;;;;;5097699;28;20711;-76
2023/09/12 04:55:52;;;;;;;7.93;6.93;;;18.00;99.90;;;;;;5097337;27;21270;-76
2023/09/12 04:58:19;;;;;;;11.60;7.70;;;17.90;99.90;;;;;;5098962;27;20628;-75
2023/09/12 05:00:46;;;;;;;9.20;7.63;;;18.00;99.90;;;;;;5100384;28;20649;-75
2023/09/12 05:03:13;;;;;;;11.30;7.77;;;17.90;99.90;;;;;;5099900;28;20635;-75
2023/09/12 05:05:41;;;;;;;8.17;7.23;;;17.90;99.90;;;;;;5098884;28;20678;-75
2023/09/12 05:08:08;;;;;;;10.27;7.83;;;18.00;99.90;;;;;;5099995;28;20882;-74
2023/09/12 05:10:36;;;;;;;8.13;7.33;;;18.00;99.90;;;;;;5098964;28;21005;-74
2023/09/12 05:13:03;;;;;;;9.40;7.93;;;18.10;99.90;;;;;;5101697;28;20634;-75
2023/09/12 05:15:30;;;;;;;9.10;8.03;;;18.10;99.90;;;;;;5104086;27;21259;-74
2023/09/12 05:17:56;;;;;;;9.33;8.30;;;18.20;99.90;;;;;;5106121;27;20616;-74
2023/09/12 05:20:23;;;;;;;8.47;7.57;;;18.20;99.90;;;;;;5102858;27;20631;-74
2023/09/12 05:22:51;;;;;;;9.47;8.00;;;18.30;99.90;;;;;;5103086;27;20714;-73
2023/09/12 05:25:18;;;;;;;9.43;8.57;;;18.40;99.90;;;;;;5102733;27;20635;-73
2023/09/12 05:27:45;;;;;;;9.23;8.00;;;18.40;99.90;;;;;;5103991;27;20637;-73
2023/09/12 05:30:12;;;;;;;8.33;7.23;;;18.30;99.90;;;;;;5103652;27;21304;-74
2023/09/12 05:32:39;;;;;;;11.10;8.77;;;18.40;99.90;;;;;;5102501;27;21080;-74
2023/09/12 05:35:06;;;;;;;7.77;6.73;;;18.30;99.90;;;;;;5101809;27;20616;-74
2023/09/12 05:37:33;;;;;;;9.77;7.60;;;18.40;99.90;;;;;;5104077;27;20633;-74
2023/09/12 05:40:01;;;;;;;7.63;6.90;;;18.50;99.90;;;;;;5104280;27;20639;-74
2023/09/12 05:42:28;;;;;;;9.80;7.80;;;18.50;99.90;;;;;;5104488;27;20607;-74
2023/09/12 05:44:56;;;;;;;11.20;7.00;;;18.60;99.90;;;;;;5102987;27;20631;-74
2023/09/12 05:47:23;;;;;;;10.03;8.57;;;18.70;99.90;;;;;;5101485;27;20630;-74
2023/09/12 05:49:51;;;;;;;11.83;8.57;;;18.70;99.90;;;;;;5102460;27;20682;-74
2023/09/12 05:52:18;;;;;;;10.20;7.70;;;18.80;99.90;;;;;;5102871;27;20619;-74
2023/09/12 05:54:53;;;;;;;9.20;7.77;;;18.90;99.90;;;;;;5100022;27;20658;-74
2023/09/12 05:57:23;;;;;;;12.07;8.10;;;18.90;99.90;;;;;;5100572;27;21028;-73
2023/09/12 05:59:50;;;;;;;8.53;7.30;;;19.00;99.90;;;;;;5095626;27;20651;-73
2023/09/12 06:02:17;;;;;;;10.73;8.80;;;19.00;99.90;;;;;;5099123;27;20635;-73
2023/09/12 06:04:44;;;;;;;9.47;8.10;;;19.20;99.90;;;;;;5100896;27;20760;-73
2023/09/12 06:07:11;;;;;;;12.23;8.23;;;19.20;99.90;;;;;;5103037;27;21210;-72
2023/09/12 06:09:38;;;;;;;9.07;8.13;;;19.30;99.90;;;;;;5103337;27;20669;-72
2023/09/12 06:12:06;;;;;;;9.50;8.00;;;19.40;99.90;;;;;;5102665;28;21394;-73
2023/09/12 06:14:34;;;;;;;8.73;7.87;;;19.40;99.90;;;;;;5100343;28;22065;-73
2023/09/12 06:17:00;;;;;;;10.30;8.17;;;19.50;99.90;;;;;;5101216;28;20626;-73
2023/09/12 06:19:27;;;;;;;7.93;7.00;;;19.50;99.90;;;;;;5101307;28;20624;-72
2023/09/12 06:21:55;;;;;;;10.40;8.80;;;19.60;99.90;;;;;;5100853;28;21309;-72
2023/09/12 06:24:23;;;;;;;8.40;7.60;;;19.60;99.90;;;;;;5102872;28;20692;-72
2023/09/12 06:26:50;;;;;;;8.40;7.57;;;19.70;99.90;;;;;;5101141;28;20638;-74
2023/09/12 06:29:17;;;;;;;9.60;7.47;;;19.80;99.90;;;;;;5100914;28;20658;-74
2023/09/12 06:31:45;;;;;;;12.10;8.27;;;19.90;99.90;;;;;;5102419;28;20666;-73
2023/09/12 06:34:12;;;;;;;8.53;7.37;;;19.90;99.90;;;;;;5102043;27;20636;-73
2023/09/12 06:36:41;;;;;;;8.70;7.90;;;19.90;99.90;;;;;;5101344;28;20761;-73
2023/09/12 06:39:08;;;;;;;10.97;7.70;;;20.00;99.90;;;;;;5100244;28;21017;-73
2023/09/12 06:41:35;;;;;;;15.20;8.67;;;20.10;99.90;;;;;;5101467;28;20629;-73
2023/09/12 06:44:04;;;;;;;9.93;7.63;;;20.10;99.90;;;;;;5101371;28;20622;-73
2023/09/12 06:46:30;;;;;;;8.07;7.10;;;20.20;99.90;;;;;;5103223;28;21071;-73
2023/09/12 06:48:58;;;;;;;8.33;6.70;;;20.20;99.90;;;;;;5098089;28;21222;-73
2023/09/12 06:51:26;;;;;;;9.83;7.17;;;20.30;99.90;;;;;;5098762;28;20649;-73
2023/09/12 06:53:53;;;;;;;10.47;7.50;;;20.20;99.90;;;;;;5100337;28;20639;-73
2023/09/12 06:56:20;;;;;;;9.00;8.10;;;20.10;99.90;;;;;;5101036;28;20659;-74
2023/09/12 06:58:48;;;;;;;7.97;7.27;;;20.20;99.90;;;;;;5102307;28;20702;-73
2023/09/12 07:01:14;;;;;;;8.57;7.40;;;20.20;99.90;;;;;;5101468;28;20654;-73
2023/09/12 07:03:41;;;;;;;8.63;7.23;;;20.20;99.90;;;;;;5101252;28;20966;-73
2023/09/12 07:06:09;;;;;;;8.87;7.23;;;20.30;99.90;;;;;;5102801;28;20718;-73
2023/09/12 07:08:37;;;;;;;10.67;8.20;;;20.40;99.90;;;;;;5064595;27;1083605;-73
2023/09/12 07:11:06;;;;;;;12.00;8.10;;;20.40;99.90;;;;;;5103218;27;20217;-73
2023/09/12 07:13:33;;;;;;;10.13;8.13;;;20.50;99.90;;;;;;5104278;27;21267;-73
2023/09/12 07:16:03;;;;;;;10.00;7.03;;;20.50;99.90;;;;;;5101113;27;20629;-73
2023/09/12 07:18:30;;;;;;;9.50;8.20;;;20.60;99.90;;;;;;5103621;27;20627;-73
2023/09/12 07:21:00;;;;;;;9.80;8.80;;;20.60;99.90;;;;;;5103939;27;20629;-73
2023/09/12 07:23:28;;;;;;;8.80;7.90;;;20.70;99.90;;;;;;5103329;27;20629;-73
2023/09/12 07:25:57;;;;;;;9.30;7.60;;;20.70;99.90;;;;;;5101706;27;21007;-73
2023/09/12 07:28:24;;;;;;;10.40;8.07;;;20.70;99.90;;;;;;5102169;27;21080;-73
2023/09/12 07:30:51;;;;;;;9.53;8.33;;;20.80;99.90;;;;;;5102278;27;20634;-74
2023/09/12 07:33:17;;;;;;;11.40;8.10;;;20.80;99.90;;;;;;5103022;27;20645;-73
2023/09/12 07:35:44;;;;;;;7.93;6.70;;;20.80;99.90;;;;;;5102077;27;20641;-73
2023/09/12 07:38:11;;;;;;;8.43;7.57;;;20.90;99.90;;;;;;5100906;27;20624;-73
2023/09/12 07:40:39;;;;;;;9.60;8.60;;;21.20;99.90;;;;;;5102066;27;20639;-73
2023/09/12 07:43:07;;;;;;;16.43;8.63;;;21.40;99.80;;;;;;5102146;27;20626;-75
2023/09/12 07:45:36;;;;;;;12.20;8.93;;;21.60;99.50;;;;;;5102231;27;21066;-73
2023/09/12 07:48:04;;;;;;;9.20;8.20;;;21.70;99.90;;;;;;5100757;27;20989;-73
2023/09/12 07:50:31;;;;;;;10.20;9.07;;;21.90;99.10;;;;;;5095889;27;20662;-73
2023/09/12 07:52:58;;;;;;;10.33;8.63;;;22.10;99.50;;;;;;5100134;27;20634;-73
2023/09/12 07:55:45;;;;;;;10.87;8.13;;;22.20;97.90;;;;;;5100684;27;20756;-73
2023/09/12 07:58:18;;;;;;;12.63;8.00;;;22.30;97.50;;;;;;5102767;27;20640;-73
2023/09/12 08:00:54;;;;;;;9.97;7.10;;;22.50;97.50;;;;;;5100941;27;20715;-73
2023/09/12 08:03:27;;;;;;;10.37;7.90;;;22.60;98.10;;;;;;5101093;27;21013;-73
2023/09/12 08:05:59;;;;;;;9.10;8.17;;;22.90;96.90;;;;;;5100512;27;20634;-73
2023/09/12 08:08:26;;;;;;;8.20;7.37;;;23.00;97.30;;;;;;5101134;27;20650;-73
2023/09/12 08:10:57;;;;;;;8.27;7.47;;;23.10;96.80;;;;;;5102672;27;20618;-73
2023/09/12 08:13:24;;;;;;;7.60;6.90;;;23.10;97.00;;;;;;5102315;27;20691;-73
2023/09/12 08:15:50;;;;;;;8.83;7.93;;;23.20;97.30;;;;;;5101502;27;20635;-73
2023/09/12 08:18:19;;;;;;;8.80;8.00;;;23.20;96.70;;;;;;5100332;27;20624;-73
2023/09/12 08:20:49;;;;;;;9.50;7.17;;;23.20;96.70;;;;;;5100938;27;20623;-73
2023/09/12 08:23:16;;;;;;;12.30;7.60;;;23.20;97.00;;;;;;5102751;27;20616;-73
2023/09/12 08:25:45;;;;;;;9.53;8.30;;;23.20;97.10;;;;;;5099573;27;20634;-73
2023/09/12 08:28:16;;;;;;;9.30;8.40;;;23.20;97.10;;;;;;5101198;27;20632;-73
2023/09/12 08:30:45;;;;;;;9.93;7.90;;;23.20;96.90;;;;;;5101624;27;21315;-72
2023/09/12 08:33:12;;;;;;;9.20;8.27;;;23.10;97.80;;;;;;5100675;27;21195;-72
2023/09/12 08:35:39;;;;;;;10.73;8.47;;;23.10;98.30;;;;;;5100677;27;20630;-73
2023/09/12 08:38:06;;;;;;;9.60;8.80;;;23.10;98.30;;;;;;5100691;27;20627;-73
2023/09/12 08:40:35;;;;;;;9.60;8.50;;;23.30;96.90;;;;;;5101380;27;20627;-73
2023/09/12 08:43:05;;;;;;;14.10;9.60;;;23.60;96.30;;;;;;5100229;27;20616;-73
2023/09/12 08:45:35;;;;;;;8.43;7.70;;;23.90;96.00;;;;;;5100785;27;20628;-74
2023/09/12 08:48:07;;;;;;;9.00;8.10;;;24.10;95.60;;;;;;5100940;27;20629;-74
2023/09/12 08:50:34;;;;;;;9.67;6.93;;;24.30;95.60;;;;;;5102204;27;20650;-73
2023/09/12 08:53:01;;;;;;;9.73;8.57;;;24.40;95.90;;;;;;5101302;27;20727;-73
2023/09/12 08:55:33;;;;;;;8.80;7.83;;;24.60;95.40;;;;;;5100316;28;20711;-74
2023/09/12 08:58:04;;;;;;;8.30;7.50;;;24.60;95.10;;;;;;5099650;27;20631;-73
2023/09/12 09:00:33;;;;;;;11.23;8.77;;;24.70;94.70;;;;;;5100412;28;20626;-73
2023/09/12 09:03:03;;;;;;;12.00;8.80;;;24.70;94.70;;;;;;5100635;28;20634;-73
2023/09/12 09:05:30;;;;;;;8.00;7.30;;;24.90;95.00;;;;;;5098989;28;20637;-74
2023/09/12 09:08:01;;;;;;;7.97;7.17;;;25.00;94.90;;;;;;5100790;28;21210;-73
2023/09/12 09:10:32;;;;;;;9.37;8.40;;;25.00;94.60;;;;;;5099506;28;20662;-73
2023/09/12 09:13:02;;;;;;;9.37;8.40;;;25.20;94.50;;;;;;5099057;28;21669;-74
2023/09/12 09:15:32;;;;;;;10.70;8.00;;;25.20;93.40;;;;;;5098898;28;20624;-73
2023/09/12 09:18:05;;;;;;;11.93;8.43;;;25.00;94.50;;;;;;5098901;28;21014;-74
2023/09/12 09:20:35;;;;;;;9.50;7.93;;;25.20;94.70;;;;;;5100853;28;20633;-74
2023/09/12 09:23:05;;;;;;;8.10;7.30;;;25.30;94.20;;;;;;5099886;28;20678;-73
2023/09/12 09:25:36;;;;;;;12.40;8.53;;;25.50;94.30;;;;;;5098863;28;21599;-74
2023/09/12 09:28:04;;;;;;;8.93;7.93;;;25.60;93.40;;;;;;5096876;28;20681;-74
2023/09/12 09:30:47;;;;;;;7.67;6.97;;;25.60;93.00;;;;;;5099204;28;20655;-73
2023/09/12 09:33:16;;;;;;;8.90;7.47;;;25.70;92.90;;;;;;5099433;28;20645;-73
2023/09/12 09:35:49;;;;;;;8.90;7.30;;;25.60;91.90;;;;;;5100152;28;20638;-74
2023/09/12 09:38:21;;;;;;;9.27;7.87;;;25.80;92.00;;;;;;5101483;28;20673;-73
2023/09/12 09:40:50;;;;;;;11.03;7.90;;;25.90;91.60;;;;;;5099329;28;20623;-74
2023/09/12 09:43:21;;;;;;;8.40;7.50;;;26.10;90.60;;;;;;5100839;28;20623;-73
2023/09/12 09:45:55;;;;;;;7.87;7.17;;;26.20;91.10;;;;;;5098240;28;20639;-73
2023/09/12 09:48:26;;;;;;;8.53;7.70;;;26.30;91.30;;;;;;5100457;28;21688;-73
2023/09/12 09:50:54;;;;;;;9.30;8.33;;;26.40;90.80;;;;;;5102529;28;21024;-73
2023/09/12 09:53:26;;;;;;;9.37;8.57;;;26.50;90.30;;;;;;5099977;28;20630;-73
2023/09/12 09:55:53;;;;;;;8.27;7.50;;;26.60;90.50;;;;;;5099347;28;20627;-73
2023/09/12 09:58:24;;;;;;;10.33;7.70;;;26.80;89.90;;;;;;5101317;28;20635;-73
2023/09/12 10:00:51;;;;;;;9.53;8.63;;;26.80;90.00;;;;;;5100188;27;20624;-73
2023/09/12 10:03:22;;;;;;;7.97;7.23;;;27.00;89.40;;;;;;5103238;27;21151;-73
2023/09/12 10:05:53;;;;;;;12.00;8.83;;;27.10;91.00;;;;;;5103532;27;20623;-73
2023/09/12 10:08:22;;;;;;;9.30;8.17;;;27.10;88.90;;;;;;5104852;27;20630;-73
2023/09/12 10:10:49;;;;;;;10.47;7.67;;;27.30;89.70;;;;;;5102792;27;21888;-73
2023/09/12 10:13:17;;;;;;;9.23;7.90;;;27.40;89.70;;;;;;5104628;27;20619;-72
2023/09/12 10:15:45;;;;;;;9.57;7.80;;;27.50;88.50;;;;;;5104412;27;20630;-72
2023/09/12 10:18:18;;;;;;;8.57;7.77;;;27.50;88.60;;;;;;5103027;27;21338;-73
2023/09/12 10:20:51;;;;;;;9.10;8.30;;;27.60;88.50;;;;;;5102966;27;21147;-73
2023/09/12 10:23:23;;;;;;;10.03;7.20;;;27.70;86.90;;;;;;5101481;27;20992;-73
2023/09/12 10:25:51;;;;;;;8.10;7.33;;;27.60;85.30;;;;;;5100473;27;20638;-73
2023/09/12 10:28:19;;;;;;;8.50;7.60;;;27.70;86.60;;;;;;5101012;27;21465;-74
2023/09/12 10:30:46;;;;;;;8.27;7.47;;;27.70;83.60;;;;;;5103409;27;20656;-74
2023/09/12 10:33:16;;;;;;;9.43;7.40;;;27.70;83.70;;;;;;5102054;27;20634;-73
2023/09/12 10:35:45;;;;;;;8.30;7.50;;;27.80;84.50;;;;;;5102296;27;20620;-73
2023/09/12 10:38:17;;;;;;;8.40;7.57;;;27.90;84.90;;;;;;5103118;27;21230;-73
2023/09/12 10:40:45;;;;;;;7.40;6.70;;;28.00;81.10;;;;;;5104245;27;21045;-73
2023/09/12 10:43:12;;;;;;;9.43;7.23;;;28.00;80.10;;;;;;5102107;27;20636;-73
2023/09/12 10:45:41;;;;;;;9.63;7.70;;;28.10;82.10;;;;;;5103910;27;20620;-73
2023/09/12 10:48:13;;;;;;;8.70;7.90;;;28.20;82.00;;;;;;5104475;27;20628;-74
2023/09/12 10:50:43;;;;;;;8.00;7.30;;;28.30;81.40;;;;;;5102822;27;20661;-73
2023/09/12 10:53:14;;;;;;;7.60;6.90;;;28.30;81.30;;;;;;5103048;27;20623;-73
2023/09/12 10:55:41;;;;;;;7.00;6.30;;;28.40;80.20;;;;;;5102787;27;21007;-73
2023/09/12 10:58:10;;;;;;;8.10;7.40;;;28.40;80.30;;;;;;5102816;27;20626;-73
2023/09/12 11:00:38;;;;;;;9.60;6.67;;;28.60;80.60;;;;;;5101316;27;20635;-73
2023/09/12 11:03:39;;;;;;;8.53;5.77;;;28.70;77.10;;;;;;5101847;27;20916;-73
2023/09/12 11:06:22;;;;;;;8.30;6.87;;;28.70;77.50;;;;;;5102665;27;21042;-73
2023/09/12 11:09:24;;;;;;;7.83;7.10;;;28.80;77.00;;;;;;5102944;27;20624;-73
2023/09/12 11:11:56;;;;;;;7.57;6.87;;;28.80;76.10;;;;;;5098230;27;21376;-71
2023/09/12 11:14:24;;;;;;;7.80;7.20;;;28.90;75.80;;;;;;5102254;27;20952;-72
2023/09/12 11:17:23;;;;;;;14.03;7.10;;;28.90;75.90;;;;;;5104296;27;21221;-72
2023/09/12 11:19:53;;;;;;;7.50;6.80;;;29.00;75.30;;;;;;5102547;27;20686;-72
2023/09/12 11:22:24;;;;;;;8.70;7.80;;;29.00;75.20;;;;;;5103610;27;20924;-72
2023/09/12 11:24:56;;;;;;;8.13;7.10;;;29.00;74.10;;;;;;5103227;27;20630;-72
2023/09/12 11:27:23;;;;;;;7.07;6.47;;;29.10;72.70;;;;;;5103989;27;20731;-72
2023/09/12 11:29:50;;;;;;;7.60;6.90;;;29.10;73.40;;;;;;5102211;27;20730;-72
2023/09/12 11:32:31;;;;;;;7.63;6.93;;;28.80;74.50;;;;;;5102739;27;20627;-72
2023/09/12 11:34:59;;;;;;;8.17;7.47;;;28.90;75.60;;;;;;5100250;27;20633;-73
2023/09/12 11:37:29;;;;;;;8.60;7.40;;;29.00;75.20;;;;;;5102312;27;20749;-73
2023/09/12 11:39:58;;;;;;;7.23;6.53;;;29.00;74.10;;;;;;5102495;27;20635;-73
2023/09/12 11:42:26;;;;;;;13.80;7.33;;;29.00;75.40;;;;;;5102034;27;20676;-73
2023/09/12 11:44:53;;;;;;;7.50;6.80;;;29.10;73.90;;;;;;5101077;27;20619;-73
2023/09/12 11:47:20;;;;;;;6.90;6.30;;;29.30;71.30;;;;;;5102179;27;20646;-73
2023/09/12 11:49:47;;;;;;;7.00;6.40;;;29.20;72.10;;;;;;5102175;27;20631;-73
2023/09/12 11:52:16;;;;;;;6.73;6.10;;;29.20;69.90;;;;;;5102383;27;20627;-73
2023/09/12 11:54:43;;;;;;;9.13;7.53;;;29.20;69.60;;;;;;5102694;27;20635;-73
2023/09/12 11:57:14;;;;;;;10.40;7.10;;;29.30;72.30;;;;;;5101695;27;20637;-73
2023/09/12 11:59:43;;;;;;;7.40;6.70;;;29.30;72.80;;;;;;5102826;27;20757;-73
2023/09/12 12:02:11;;;;;;;7.90;6.93;;;29.30;71.00;;;;;;5102914;27;20631;-73
2023/09/12 12:04:38;;;;;;;7.13;6.37;;;29.30;72.30;;;;;;5100928;27;21187;-73
2023/09/12 12:07:06;;;;;;;6.87;6.27;;;29.40;71.20;;;;;;5101808;27;21124;-73
2023/09/12 12:09:34;;;;;;;10.20;6.40;;;29.30;68.90;;;;;;5099934;27;20740;-73
2023/09/12 12:12:05;;;;;;;10.00;7.30;;;29.40;71.80;;;;;;5100414;27;20654;-73
2023/09/12 12:14:36;;;;;;;6.60;6.03;;;29.50;69.50;;;;;;5100969;27;20673;-73
2023/09/12 12:17:08;;;;;;;6.70;6.10;;;29.60;69.80;;;;;;5098183;27;21051;-74
2023/09/12 12:19:36;;;;;;;15.40;6.93;;;29.70;68.70;;;;;;5100472;27;20646;-74
2023/09/12 12:22:07;;;;;;;8.43;6.47;;;29.80;67.00;;;;;;5100614;27;20619;-73
2023/09/12 12:24:41;;;;;;;8.40;6.10;;;29.80;68.00;;;;;;5100288;27;20666;-74
2023/09/12 12:27:09;;;;;;;7.30;6.43;;;29.90;68.30;;;;;;5101105;27;20619;-74
2023/09/12 12:29:39;;;;;;;6.00;5.50;;;30.10;66.30;;;;;;5100070;27;20723;-74
2023/09/12 12:32:28;;;;;;;6.57;6.03;;;30.10;65.40;;;;;;5102283;27;20654;-75
2023/09/12 12:35:05;;;;;;;8.10;5.83;;;30.10;64.20;;;;;;5068290;28;20620;-73
2023/09/12 12:37:32;;;;;;;7.47;6.70;;;30.10;63.10;;;;;;5079406;28;20726;-73
2023/09/12 12:40:00;;;;;;;6.90;6.20;;;30.10;62.70;;;;;;5080746;28;20709;-74
2023/09/12 12:42:51;;;;;;;12.13;6.10;;;30.00;64.30;;;;;;5080581;28;20624;-74
2023/09/12 12:45:29;;;;;;;9.07;6.90;;;30.00;63.00;;;;;;5080706;28;20628;-76
2023/09/12 12:48:04;;;;;;;6.30;5.70;;;30.10;63.50;;;;;;5076984;28;20801;-73
2023/09/12 12:50:38;;;;;;;8.53;5.70;;;30.10;63.00;;;;;;5079488;28;20770;-73
2023/09/12 12:53:05;;;;;;;7.57;6.90;;;30.10;62.90;;;;;;5081733;28;21059;-74
2023/09/12 12:55:35;;;;;;;9.00;6.13;;;30.30;62.10;;;;;;5078933;28;20632;-72
2023/09/12 12:58:05;;;;;;;7.20;6.50;;;30.40;63.70;;;;;;5079474;28;20714;-73
2023/09/12 13:00:34;;;;;;;6.50;5.90;;;30.40;64.20;;;;;;5079990;28;20619;-72
2023/09/12 13:03:00;;;;;;;8.30;6.53;;;30.40;64.50;;;;;;5079551;28;21605;-72
2023/09/12 13:05:29;;;;;;;6.70;6.10;;;30.50;63.40;;;;;;5078757;28;20642;-73